Grizzly Air Cargo 5371


PACD
Cold Bay Airport
Cold Bay, Alaska, US
PAKN
King Salmon Airport
King Salmon, Alaska, US

Activity Log

Date Flight Route Aircraft Duration
No Flights Yet

Route Details

Aircraft Information
Primary: Saab 340AF
Backup: Not Available
Route Data
Distance: 302nm
Sched. Duration: 1h 39m
Avg. Duration: 0h 00m (-140m)
Times Flown: 0
Recm'd Route: CDB J115 AKN
Planned Altitude: 25,000ft
Origin Wx: PACD 181618Z AUTO 25017KT 3SM -SN BR OVC021 00/M02 A2942 RMK AO2 P0002 T00001017 TSNO
Dest. Wx: PAKN 181554Z AUTO 16023G27KT 10SM SCT055 OVC065 02/M03 A2935 RMK AO2 PK WND 16033/1532 SLP941 T00171028 TSNO
Notes:

Financial History
Total Freight: 0lbs
Average Load: 0lbs/flt
Fuel Used: 0lbs
Avg. Fuel Used: 0lbs/flt
Fuel Expense: $0
Avg. Fuel Expense: $0
Avg. Fuel Cost: $0/lbs
Total Gross Income: $0
Pilot Pay: $0
Total Expenses: $0
Total Revenue: $0
Average Revenue: $0